Orangeburg, SC

6:56 AM EST on February 07, 2016 (GMT -0500)
APRSWXNET | | Change Station
CLOSE
Current Station
Personal Weather Station
Location: Cordova, SC
Elevation: 206 ft
Nearby Weather Stations
Active Advisory: Flood Warning, Lake Wind Advisory

Elev 206 ft 33.49 °N, 80.93 °W | Updated 20 minutes ago

Clear
Clear
38 °F
Feels Like 38 °F
N
3
Wind Variable Wind from NW
Gusts 5.0 mph

Today
High -- | Low -- °F
--% Chance of Precip.
Yesterday
High -- | Low -- °F
Precip. -- in
Pressure 30.03 in
Visibility 10.0 miles
Clouds Overcast 4600 ft
Windchill 38 °F
Dew Point 34 °F
Humidity 85%
Rainfall in
Snow Depth Not available.
7:15 AM 6:00 PM
Waning Crescent, 2% visible
METAR KOGB 071153Z AUTO 02008KT 10SM OVC046 04/00 A3002 RMK AO2 SLP167 60025 70032 T00390000 10050 20033 56014
Pressure 30.03 in
Visibility 10.0 miles
Clouds Overcast 4600 ft
Windchill 38 °F
Dew Point 34 °F
Humidity 85%
Rainfall in
Snow Depth Not available.
7:15 AM 6:00 PM
Waning Crescent, 2% visible
METAR KOGB 071153Z AUTO 02008KT 10SM OVC046 04/00 A3002 RMK AO2 SLP167 60025 70032 T00390000 10050 20033 56014

10-Day Weather Forecast

Almanac

Astronomy

Feb. 07, 2016 Rise Set
Actual Time
Civil Twilight
Nautical Twilight
Astronomical Twilight
Moon
Length of Visible Light
Length of Day
Tomorrow will be .
, % of the Moon is Illuminated

Today's Extremes

State Highs State Lows

Community

WunderPhotos

Upload Photos

1,891,182 photos uploaded!

WunderBlog® & News

Nearby

Air Quality

  Air Quality AQ Index Pollutant
Not available.

Snow Depth

Station Depth Elevation

Earthquake Activity

City Distance Mag. Time & Date
Minimum magnitude displayed is 2.5.

Coastal Water Temperatures

Place Temperature

Stations

Nearby Weather Stations

Station Location Temp. Windchill Dew Point Humidity Wind Precip. Elev Updated Type
                   

Watches & Warnings

Flood Warning
Issued: 5:16 AM EST Feb. 7, 2016 – National Weather Service

The Flood Warning extended for
the North Fork edisto river at Orangeburg.
* Until this evening.
* At 5 am Sunday the stage was 8.0 feet.
* Flood stage is 8.0 feet.
* Minor flooding is occurring and minor flooding is forecast.
* Forecast... the river will fall below flood stage by this evening.
* At 8.0 feet... some minor flooding occurs along the boardwalk at
edisto gardens. Downstream from the Highway 301 bridge, some roads
off Chiquita street near the river begin to flood.


Lat... Lon 3355 8092 3342 8082 3336 8091 3354 8100




Lake Wind Advisory
Issued: 3:55 AM EST Feb. 7, 2016 – National Weather Service

... Lake Wind Advisory remains in effect until 6 PM EST this
evening...

* winds... north 20 to 30 knots.

* Impacts... strong winds and rough chop will create hazardous
conditions for small craft and personal watercraft.

Precautionary/preparedness actions...

A lake Wind Advisory indicates that winds will cause rough chop
on area lakes. Small boats will be especially prone to capsizing.